Time;durP1;ratioP1;P1;durP2;ratioP2;P2;SDS_P1;SDS_P2;PMS_P1;PMS_P2;Temp;Humidity;BMP_temperature;BMP_pressure;BME280_temperature;BME280_humidity;BME280_pressure;Samples;Min_cycle;Max_cycle;Signal;HPM_P1;HPM_P2
2023/12/05 00:00:27;;;;;;;3.37;3.07;;;;;;;22.54;29.47;95448.22;6235350;28;109974;-59
2023/12/05 00:03:30;;;;;;;3.73;3.00;;;;;;;22.52;29.56;95457.59;6228276;27;109592;-58
2023/12/05 00:06:33;;;;;;;3.43;3.13;;;;;;;22.52;29.58;95455.72;6256560;27;109408;-57
2023/12/05 00:09:38;;;;;;;3.37;3.07;;;;;;;22.53;29.95;95459.19;6239011;27;108979;-58
2023/12/05 00:12:41;;;;;;;3.67;3.37;;;;;;;22.53;29.49;95459.19;6226120;27;109591;-58
2023/12/05 00:15:44;;;;;;;4.97;2.77;;;;;;;22.53;29.89;95459.19;6248859;27;109012;-58
2023/12/05 00:18:49;;;;;;;3.10;2.80;;;;;;;22.53;29.37;95465.31;6238358;27;109357;-56
2023/12/05 00:21:53;;;;;;;3.60;3.30;;;;;;;22.53;29.31;95465.31;6253866;27;110796;-57
2023/12/05 00:24:58;;;;;;;4.00;2.93;;;;;;;22.52;29.71;95462.94;6236848;27;109758;-57
2023/12/05 00:28:01;;;;;;;3.53;3.23;;;;;;;22.51;29.87;95462.13;6239750;27;109479;-56
2023/12/05 00:31:05;;;;;;;2.70;2.50;;;;;;;22.53;29.37;95467.19;6239750;27;110086;-57
2023/12/05 00:34:08;;;;;;;3.57;3.27;;;;;;;22.51;29.67;95466.66;6239415;27;109149;-58
2023/12/05 00:37:11;;;;;;;3.33;2.70;;;;;;;22.51;29.47;95467.44;6229360;27;109745;-58
2023/12/05 00:40:15;;;;;;;2.70;2.50;;;;;;;22.50;29.53;95473.09;6256182;27;109525;-57
2023/12/05 00:43:18;;;;;;;2.97;2.77;;;;;;;22.51;29.41;95472.00;6239566;27;109015;-58
2023/12/05 00:46:22;;;;;;;2.77;2.57;;;;;;;22.51;29.64;95478.13;6238734;27;108828;-58
2023/12/05 00:49:26;;;;;;;3.43;2.23;;;;;;;22.52;29.27;95490.41;6240155;27;109813;-57
2023/12/05 00:52:29;;;;;;;3.40;3.10;;;;;;;22.52;29.67;95484.28;6238170;27;108990;-56
2023/12/05 00:55:35;;;;;;;3.20;2.90;;;;;;;22.52;29.82;95474.41;6239178;27;109159;-56
2023/12/05 00:58:38;;;;;;;2.37;2.17;;;;;;;22.52;29.54;95454.94;6240326;27;109560;-57
2023/12/05 01:01:41;;;;;;;3.10;2.57;;;;;;;22.51;29.31;95456.78;6242230;27;109096;-58
2023/12/05 01:04:45;;;;;;;2.50;2.30;;;;;;;22.51;29.82;95440.00;6247493;27;109147;-58
2023/12/05 01:07:48;;;;;;;3.17;2.87;;;;;;;22.51;29.34;95445.34;6259492;27;109129;-58
2023/12/05 01:10:52;;;;;;;2.40;2.20;;;;;;;22.49;29.79;95448.28;6228832;27;110167;-57
2023/12/05 01:13:56;;;;;;;2.90;2.50;;;;;;;22.51;29.16;95461.34;6241257;27;109039;-57
2023/12/05 01:16:59;;;;;;;2.90;2.70;;;;;;;22.49;29.67;95453.63;6263590;27;109033;-58
2023/12/05 01:20:06;;;;;;;3.03;2.53;;;;;;;22.49;29.68;95440.28;6236684;27;109230;-56
2023/12/05 01:23:09;;;;;;;3.00;2.70;;;;;;;22.49;29.62;95434.19;6238431;27;109011;-55
2023/12/05 01:26:14;;;;;;;2.80;2.60;;;;;;;22.48;29.63;95425.38;6238717;28;110131;-56
2023/12/05 01:29:17;;;;;;;3.10;2.80;;;;;;;22.46;29.58;95416.09;6237906;27;109266;-56
2023/12/05 01:32:20;;;;;;;2.67;2.47;;;;;;;22.48;29.56;95433.38;6252745;27;110622;-56
2023/12/05 01:35:23;;;;;;;2.73;2.30;;;;;;;22.47;29.06;95431.03;6248800;27;110173;-56
2023/12/05 01:38:26;;;;;;;3.23;2.33;;;;;;;22.46;29.27;95411.56;6243841;27;109132;-57
2023/12/05 01:41:31;;;;;;;2.73;2.43;;;;;;;22.45;29.17;95409.19;6244216;27;109130;-57
2023/12/05 01:44:34;;;;;;;2.13;1.93;;;;;;;22.43;29.32;95398.84;6235807;27;109009;-57
2023/12/05 01:47:39;;;;;;;2.93;2.37;;;;;;;22.44;29.27;95403.06;6248437;27;108972;-58
2023/12/05 01:50:43;;;;;;;2.73;2.43;;;;;;;22.44;28.92;95400.41;6238768;27;109120;-57
2023/12/05 01:53:47;;;;;;;2.70;2.43;;;;;;;22.44;29.48;95392.41;6237889;27;109063;-57
2023/12/05 01:56:52;;;;;;;2.57;2.37;;;;;;;22.43;29.46;95382.84;6227443;27;109393;-57
2023/12/05 01:59:55;;;;;;;2.53;2.30;;;;;;;22.43;29.20;95382.84;6237768;27;109056;-57
2023/12/05 02:02:58;;;;;;;3.00;2.60;;;;;;;22.44;29.65;95391.63;6243325;27;109200;-57
2023/12/05 02:06:02;;;;;;;2.47;2.20;;;;;;;22.43;29.14;95390.84;6236819;27;109017;-57
2023/12/05 02:09:06;;;;;;;2.70;2.20;;;;;;;22.42;29.38;95389.25;6232763;27;110557;-58
2023/12/05 02:12:11;;;;;;;3.10;2.57;;;;;;;22.43;29.41;95390.84;6261813;27;110007;-58
2023/12/05 02:15:16;;;;;;;2.53;2.33;;;;;;;22.42;29.23;95392.72;6262925;27;109335;-57
2023/12/05 02:18:23;;;;;;;2.50;2.20;;;;;;;22.43;29.67;95385.50;6238907;27;110143;-57
2023/12/05 02:21:32;;;;;;;4.10;2.53;;;;;;;22.45;29.47;95383.31;6237385;27;109885;-57
2023/12/05 02:24:40;;;;;;;2.90;2.60;;;;;;;22.42;29.14;95382.03;6237662;27;110114;-57
2023/12/05 02:27:46;;;;;;;2.70;2.33;;;;;;;22.42;29.14;95383.91;6237466;27;109208;-57
2023/12/05 02:30:49;;;;;;;3.10;2.63;;;;;;;22.42;29.37;95375.91;6226077;27;109050;-57
2023/12/05 02:33:53;;;;;;;2.33;2.13;;;;;;;22.42;29.31;95383.91;6242607;27;109028;-57
2023/12/05 02:37:08;;;;;;;2.80;2.40;;;;;;;22.42;29.45;95370.59;6237208;27;110013;-58
2023/12/05 02:40:16;;;;;;;2.60;2.40;;;;;;;22.41;28.98;95361.81;6230766;27;109757;-58
2023/12/05 02:43:27;;;;;;;2.77;2.57;;;;;;;22.43;28.99;95366.84;6236423;27;110374;-57
2023/12/05 02:46:32;;;;;;;2.43;2.20;;;;;;;22.40;28.87;95368.22;6240327;27;110058;-57
2023/12/05 02:49:36;;;;;;;2.60;2.33;;;;;;;22.42;29.07;95357.25;6236314;27;109067;-57
2023/12/05 02:52:39;;;;;;;2.70;2.20;;;;;;;22.44;29.10;95341.75;6225924;27;108998;-57
2023/12/05 02:55:42;;;;;;;2.83;2.43;;;;;;;22.43;29.45;95348.16;6256804;27;110171;-57
2023/12/05 02:58:47;;;;;;;2.53;2.30;;;;;;;22.45;29.32;95331.88;6260298;27;109207;-57
2023/12/05 03:01:50;;;;;;;3.10;2.80;;;;;;;22.46;29.42;95328.09;6261893;27;109129;-57
2023/12/05 03:04:53;;;;;;;3.07;2.77;;;;;;;22.44;28.87;95320.41;6238693;27;110126;-57
2023/12/05 03:07:56;;;;;;;3.20;2.73;;;;;;;22.45;28.87;95323.88;6259389;27;109233;-57
2023/12/05 03:10:59;;;;;;;3.30;2.40;;;;;;;22.45;29.08;95319.31;6240452;27;109458;-57
2023/12/05 03:14:12;;;;;;;2.67;2.47;;;;;;;22.43;29.29;95297.50;6237444;27;109965;-57
2023/12/05 03:17:15;;;;;;;2.90;2.47;;;;;;;22.44;29.34;95314.28;6235347;27;110347;-57
2023/12/05 03:20:19;;;;;;;2.50;2.30;;;;;;;22.42;29.45;95309.25;6251616;27;109316;-57
2023/12/05 03:23:22;;;;;;;2.80;2.60;;;;;;;22.42;29.17;95301.25;6260975;27;109229;-57
2023/12/05 03:26:25;;;;;;;2.87;2.57;;;;;;;22.43;29.06;95316.16;6247496;27;110253;-57
2023/12/05 03:29:30;;;;;;;2.70;2.50;;;;;;;22.41;28.86;95311.13;6243903;27;109325;-56
2023/12/05 03:32:33;;;;;;;2.90;2.60;;;;;;;22.41;28.91;95305.81;6259987;27;109415;-57
2023/12/05 03:35:36;;;;;;;3.07;2.77;;;;;;;22.40;28.75;95316.78;6249103;27;109488;-57
2023/12/05 03:38:40;;;;;;;3.77;2.80;;;;;;;22.40;29.24;95300.78;6234288;27;110259;-58
2023/12/05 03:41:45;;;;;;;2.20;2.00;;;;;;;22.39;29.35;95300.00;6254132;27;111262;-56
2023/12/05 03:44:50;;;;;;;3.20;2.90;;;;;;;22.40;28.86;95306.09;6245606;27;110327;-56
2023/12/05 03:47:53;;;;;;;3.30;2.90;;;;;;;22.39;29.11;95296.53;6231552;27;108981;-57
2023/12/05 03:50:57;;;;;;;3.10;2.43;;;;;;;22.39;29.12;95291.19;6254280;27;109136;-56
2023/12/05 03:54:00;;;;;;;2.80;2.53;;;;;;;22.40;29.29;95300.78;6247570;27;110179;-56
2023/12/05 03:57:03;;;;;;;2.90;2.60;;;;;;;22.40;29.41;95306.09;6245309;27;110044;-56
2023/12/05 04:00:10;;;;;;;3.50;2.53;;;;;;;22.31;29.58;95305.22;6240865;27;110030;-60
2023/12/05 04:03:13;;;;;;;4.07;2.90;;;;;;;22.14;29.97;95303.19;6239684;27;109213;-56
2023/12/05 04:06:25;;;;;;;4.37;3.97;;;;;;;22.24;29.36;95307.53;6240063;27;110510;-57
2023/12/05 04:09:29;;;;;;;3.50;2.80;;;;;;;22.31;29.12;95305.22;6245271;27;109027;-56
2023/12/05 04:12:32;;;;;;;3.43;2.90;;;;;;;22.34;29.10;95300.06;6229329;27;109338;-56
2023/12/05 04:15:36;;;;;;;3.40;2.70;;;;;;;22.35;29.46;95304.34;6248190;27;109066;-57
2023/12/05 04:18:40;;;;;;;6.50;3.57;;;;;;;22.30;30.07;95301.78;6241853;27;110209;-60
2023/12/05 04:21:43;;;;;;;10.97;10.07;;;;;;;22.24;29.49;95312.84;6256803;27;111905;-59
2023/12/05 04:24:46;;;;;;;14.47;13.17;;;;;;;22.29;30.04;95315.41;6230267;27;109404;-59
2023/12/05 04:27:50;;;;;;;13.93;12.83;;;;;;;22.37;29.53;95317.38;6257097;27;109346;-60
2023/12/05 04:30:54;;;;;;;17.53;16.17;;;;;;;22.41;29.62;95302.34;6260277;27;108875;-59
2023/12/05 04:33:57;;;;;;;18.80;17.37;;;;;;;22.45;29.97;95291.88;6255994;27;109702;-60
2023/12/05 04:37:01;;;;;;;17.77;16.47;;;;;;;22.48;29.90;95302.72;6257304;27;109501;-59
2023/12/05 04:40:07;;;;;;;18.07;16.67;;;;;;;22.27;30.18;95304.25;6251894;27;109067;-57
2023/12/05 04:43:10;;;;;;;11.53;10.30;;;;;;;21.80;28.10;95303.59;6261921;27;109176;-59
2023/12/05 04:46:15;;;;;;;10.50;7.53;;;;;;;21.37;27.87;95301.25;6234862;27;108928;-61
2023/12/05 04:49:18;;;;;;;8.40;7.60;;;;;;;21.04;27.51;95297.00;6240088;27;111106;-59
2023/12/05 04:52:21;;;;;;;7.10;6.40;;;;;;;21.21;28.90;95297.28;6238942;27;109082;-59
2023/12/05 04:55:25;;;;;;;8.63;7.03;;;;;;;21.74;27.79;95310.91;6242687;27;109844;-59
2023/12/05 04:58:28;;;;;;;6.87;6.17;;;;;;;21.99;27.85;95301.63;6241660;27;109880;-56
2023/12/05 05:01:33;;;;;;;6.13;5.53;;;;;;;22.12;27.88;95321.38;6264989;27;109408;-56
2023/12/05 05:04:36;;;;;;;7.90;5.30;;;;;;;22.21;28.30;95321.47;6280532;27;109181;-56
2023/12/05 05:07:39;;;;;;;5.50;5.00;;;;;;;22.27;27.46;95310.38;6252099;27;110103;-56
2023/12/05 05:10:42;;;;;;;6.27;5.67;;;;;;;22.37;27.76;95306.72;6244667;27;110756;-62
2023/12/05 05:13:45;;;;;;;6.53;5.50;;;;;;;22.49;27.57;95312.28;6257939;27;109497;-59
2023/12/05 05:17:01;;;;;;;5.27;4.77;;;;;;;22.62;28.04;95303.47;6263582;27;109224;-60
2023/12/05 05:20:05;;;;;;;4.70;4.30;;;;;;;22.74;28.17;95323.50;6243463;27;110584;-59
2023/12/05 05:23:09;;;;;;;5.73;4.90;;;;;;;22.59;28.96;95313.97;6244084;27;109055;-60
2023/12/05 05:26:13;;;;;;;5.20;4.23;;;;;;;22.48;28.87;95313.38;6259304;27;109155;-61
2023/12/05 05:29:17;;;;;;;5.33;4.30;;;;;;;22.46;29.39;95328.88;6263562;27;109627;-60
2023/12/05 05:32:22;;;;;;;4.50;4.10;;;;;;;22.45;28.97;95315.88;6252315;27;109249;-60
2023/12/05 05:35:26;;;;;;;4.30;3.90;;;;;;;22.43;29.44;95308.16;6263080;27;109024;-61
2023/12/05 05:38:29;;;;;;;4.50;4.10;;;;;;;22.41;29.16;95318.34;6263545;27;112173;-60
2023/12/05 05:41:32;;;;;;;6.20;4.60;;;;;;;22.40;29.30;95316.78;6260453;27;111898;-59
2023/12/05 05:44:35;;;;;;;4.40;3.90;;;;;;;22.36;29.57;95326.47;6258359;27;109055;-59
2023/12/05 05:47:40;;;;;;;4.40;4.00;;;;;;;22.30;29.77;95319.66;6263273;27;109306;-60
2023/12/05 05:50:43;;;;;;;4.87;4.30;;;;;;;22.26;29.96;95321.34;6263639;27;109488;-60
2023/12/05 05:53:46;;;;;;;4.60;4.10;;;;;;;22.19;29.73;95326.31;6253681;27;113286;-59
2023/12/05 05:56:49;;;;;;;4.97;4.07;;;;;;;22.14;30.07;95307.75;6262997;27;109206;-60
2023/12/05 05:59:52;;;;;;;4.20;3.80;;;;;;;22.10;30.25;95304.88;6263147;27;110615;-61
2023/12/05 06:02:57;;;;;;;4.23;3.47;;;;;;;22.09;30.17;95301.44;6263211;27;110184;-60
2023/12/05 06:06:00;;;;;;;4.97;4.50;;;;;;;22.05;30.27;95276.47;6251474;27;109280;-60
2023/12/05 06:09:04;;;;;;;5.03;3.73;;;;;;;22.04;30.23;95298.88;6263265;27;113170;-60
2023/12/05 06:12:08;;;;;;;4.77;4.37;;;;;;;22.02;30.87;95301.06;6262785;27;109130;-60
2023/12/05 06:15:11;;;;;;;4.13;3.70;;;;;;;22.02;30.70;95292.28;6261926;27;108965;-60
2023/12/05 06:18:17;;;;;;;4.67;4.27;;;;;;;22.01;30.62;95294.16;6252356;27;109222;-60
2023/12/05 06:21:20;;;;;;;4.43;4.03;;;;;;;22.01;30.50;95286.16;6262888;27;109029;-60
2023/12/05 06:24:24;;;;;;;5.27;4.50;;;;;;;22.02;30.61;95290.41;6262568;27;109199;-60
2023/12/05 06:27:27;;;;;;;5.20;4.07;;;;;;;22.01;30.73;95270.16;6257482;27;109128;-60
2023/12/05 06:30:30;;;;;;;4.73;4.10;;;;;;;22.04;30.20;95250.13;6256241;27;110069;-60
2023/12/05 06:33:35;;;;;;;4.40;4.00;;;;;;;22.03;30.61;95259.22;6262890;27;110186;-60
2023/12/05 06:36:38;;;;;;;5.23;3.67;;;;;;;22.02;30.26;95266.41;6262489;27;109526;-60
2023/12/05 06:39:41;;;;;;;4.37;3.73;;;;;;;22.03;30.40;95283.19;6251169;27;108982;-60
2023/12/05 06:42:44;;;;;;;4.13;3.73;;;;;;;22.02;30.60;95279.75;6262531;27;109384;-60
2023/12/05 06:45:47;;;;;;;5.07;3.90;;;;;;;22.01;30.44;95267.50;6261817;27;109010;-60
2023/12/05 06:48:52;;;;;;;5.30;4.80;;;;;;;22.01;30.94;95272.84;6262561;27;109949;-60
2023/12/05 06:51:57;;;;;;;4.60;4.17;;;;;;;21.99;31.02;95259.00;6251671;27;109107;-62
2023/12/05 06:55:01;;;;;;;4.40;4.00;;;;;;;21.99;30.59;95264.31;6262580;27;108872;-60
2023/12/05 06:58:04;;;;;;;5.40;4.03;;;;;;;21.98;30.60;95262.75;6262928;27;110388;-60
2023/12/05 07:01:07;;;;;;;5.00;4.60;;;;;;;21.99;31.09;95263.53;6259970;27;112336;-61
2023/12/05 07:04:13;;;;;;;4.20;3.80;;;;;;;21.98;30.89;95273.41;6256689;27;109559;-60
2023/12/05 07:07:16;;;;;;;4.97;4.57;;;;;;;21.98;30.67;95269.97;6263176;27;111380;-61
2023/12/05 07:10:20;;;;;;;5.07;4.57;;;;;;;21.96;30.98;95270.25;6263539;27;109021;-62
2023/12/05 07:13:23;;;;;;;4.83;4.33;;;;;;;21.96;30.59;95254.28;6252968;27;109260;-61
2023/12/05 07:16:26;;;;;;;5.10;4.60;;;;;;;21.95;30.69;95242.03;6264235;27;109064;-59
2023/12/05 07:19:31;;;;;;;8.10;4.80;;;;;;;21.95;30.77;95236.72;6265776;27;108973;-62
2023/12/05 07:22:35;;;;;;;5.30;4.80;;;;;;;21.96;30.52;95237.50;6263025;27;108965;-62
2023/12/05 07:25:38;;;;;;;4.97;4.47;;;;;;;21.97;30.85;95233.75;6250932;27;108980;-62
2023/12/05 07:28:43;;;;;;;4.73;4.33;;;;;;;21.96;30.73;95227.63;6262251;27;110374;-63
2023/12/05 07:31:47;;;;;;;4.90;4.40;;;;;;;21.97;30.70;95228.41;6261530;27;109193;-63
2023/12/05 07:34:52;;;;;;;4.80;4.40;;;;;;;21.95;30.91;95215.41;6262375;27;109578;-61
2023/12/05 07:37:55;;;;;;;4.93;4.50;;;;;;;21.96;30.66;95216.97;6251721;27;109137;-61
2023/12/05 07:40:58;;;;;;;5.57;4.10;;;;;;;21.95;30.65;95218.06;6262442;27;109040;-62
2023/12/05 07:44:02;;;;;;;5.20;4.70;;;;;;;21.98;30.79;95216.66;6262934;27;110331;-62
2023/12/05 07:47:07;;;;;;;5.73;4.63;;;;;;;21.96;30.52;95211.63;6257148;27;110142;-61
2023/12/05 07:50:14;;;;;;;5.23;4.73;;;;;;;21.98;30.36;95225.44;6257714;27;108997;-63
2023/12/05 07:53:17;;;;;;;5.80;5.20;;;;;;;21.97;30.73;95223.88;6262583;27;109267;-61
2023/12/05 07:56:20;;;;;;;5.63;5.03;;;;;;;21.98;30.64;95230.78;6263175;27;109393;-61
2023/12/05 07:59:23;;;;;;;4.80;4.37;;;;;;;21.98;30.55;95236.09;6251659;27;109008;-60
2023/12/05 08:02:26;;;;;;;4.90;4.40;;;;;;;21.98;30.69;95245.97;6263335;27;110001;-61
2023/12/05 08:05:31;;;;;;;4.33;3.93;;;;;;;21.98;31.04;95238.78;6256453;27;109218;-60
2023/12/05 08:08:34;;;;;;;5.27;4.77;;;;;;;21.99;30.92;95244.88;6236398;27;109140;-60
2023/12/05 08:11:38;;;;;;;4.90;4.40;;;;;;;21.98;30.72;95244.09;6241148;27;108929;-60
2023/12/05 08:14:41;;;;;;;6.17;4.23;;;;;;;21.98;30.57;95248.63;6261840;27;109486;-61
2023/12/05 08:17:44;;;;;;;4.63;4.23;;;;;;;21.96;30.70;95251.59;6261943;27;109365;-61
2023/12/05 08:20:50;;;;;;;4.90;4.50;;;;;;;21.97;31.15;95257.72;6257343;27;108717;-61
2023/12/05 08:23:53;;;;;;;6.30;4.63;;;;;;;21.96;31.04;95254.28;6255800;27;110188;-61
2023/12/05 08:26:56;;;;;;;4.77;4.27;;;;;;;21.96;30.76;95261.47;6261858;27;109008;-61
2023/12/05 08:29:59;;;;;;;4.80;4.40;;;;;;;21.94;30.60;95243.13;6261372;27;109089;-60
2023/12/05 08:33:02;;;;;;;5.13;4.60;;;;;;;21.95;30.97;95251.91;6249619;27;109424;-60
2023/12/05 08:36:08;;;;;;;4.87;4.33;;;;;;;21.94;30.60;95245.78;6261410;27;108972;-61
2023/12/05 08:39:12;;;;;;;4.77;4.37;;;;;;;21.93;31.07;95238.88;6262457;27;108994;-61
2023/12/05 08:42:14;;;;;;;4.50;4.10;;;;;;;21.95;30.83;95250.03;6265397;27;110189;-62
2023/12/05 08:45:18;;;;;;;5.13;4.10;;;;;;;21.94;30.80;95245.78;6254214;27;109534;-60
2023/12/05 08:48:21;;;;;;;4.53;4.13;;;;;;;21.93;31.00;95254.88;6265269;27;109168;-60
2023/12/05 08:51:26;;;;;;;4.40;4.00;;;;;;;21.94;30.63;95245.00;6265225;27;109171;-60
2023/12/05 08:54:29;;;;;;;5.17;4.70;;;;;;;21.95;31.17;95238.59;6265955;27;110122;-60
2023/12/05 08:57:32;;;;;;;5.57;5.07;;;;;;;21.96;30.69;95245.50;6255157;27;109289;-60
2023/12/05 09:00:35;;;;;;;4.93;4.43;;;;;;;21.96;30.75;95232.16;6264769;27;108997;-61
2023/12/05 09:03:39;;;;;;;6.20;4.97;;;;;;;21.96;30.61;95216.19;6264845;27;109208;-61
2023/12/05 09:06:44;;;;;;;5.60;4.70;;;;;;;21.97;30.83;95212.44;6258419;27;109425;-61
2023/12/05 09:09:47;;;;;;;5.20;4.70;;;;;;;21.97;30.61;95209.75;6263094;27;109323;-59
2023/12/05 09:12:50;;;;;;;5.00;4.50;;;;;;;21.97;30.97;95205.22;6264710;27;109126;-60
2023/12/05 09:15:53;;;;;;;4.90;4.50;;;;;;;21.96;30.60;95198.31;6263783;27;109167;-61
2023/12/05 09:18:56;;;;;;;4.90;4.40;;;;;;;21.97;30.67;95201.78;6254403;27;108988;-59
2023/12/05 09:22:01;;;;;;;4.50;4.10;;;;;;;21.98;30.55;95196.13;6264124;27;109568;-62
2023/12/05 09:25:04;;;;;;;5.10;4.60;;;;;;;21.96;31.10;95182.34;6264728;27;109454;-60
2023/12/05 09:28:08;;;;;;;5.87;4.13;;;;;;;21.98;30.58;95188.16;6264350;27;109316;-60
2023/12/05 09:31:11;;;;;;;4.70;4.17;;;;;;;21.99;30.71;95173.72;6253352;27;109883;-60
2023/12/05 09:34:14;;;;;;;10.10;9.30;;;;;;;21.99;31.15;95168.41;6263646;27;109238;-61
2023/12/05 09:37:19;;;;;;;30.97;28.63;;;;;;;22.00;30.99;95154.00;6263590;27;109437;-61
2023/12/05 09:40:22;;;;;;;39.30;36.37;;;;;;;22.01;31.21;95144.94;6258489;27;109426;-61
2023/12/05 09:43:27;;;;;;;45.70;42.23;;;;;;;22.15;31.91;95152.06;6258128;27;110177;-63
2023/12/05 09:46:35;;;;;;;53.20;49.30;;;;;;;22.09;31.48;95146.84;6263219;27;110022;-61
2023/12/05 09:49:49;;;;;;;45.17;41.77;;;;;;;22.05;31.56;95145.09;6263147;27;111064;-60
2023/12/05 09:52:56;;;;;;;42.03;38.97;;;;;;;22.02;31.25;95138.50;6251947;27;109049;-61
2023/12/05 09:56:01;;;;;;;38.27;35.43;;;;;;;22.01;31.33;95133.44;6263306;27;109079;-61
2023/12/05 09:59:04;;;;;;;35.93;33.23;;;;;;;22.00;31.44;95122.00;6262763;27;109349;-60
2023/12/05 10:02:08;;;;;;;34.77;32.07;;;;;;;21.99;31.44;95115.09;6262826;27;109518;-60
2023/12/05 10:05:15;;;;;;;32.13;29.63;;;;;;;21.99;31.48;95109.78;6253668;27;109634;-60
2023/12/05 10:08:21;;;;;;;30.30;28.00;;;;;;;21.98;31.18;95099.44;6262965;27;109389;-60
2023/12/05 10:11:27;;;;;;;27.23;25.23;;;;;;;21.99;31.28;95098.34;6262839;27;108998;-60
2023/12/05 10:14:30;;;;;;;25.50;23.50;;;;;;;21.98;31.23;95094.09;6257809;27;108975;-60
2023/12/05 10:17:34;;;;;;;24.53;22.57;;;;;;;21.98;31.45;95094.09;6257283;27;109609;-60
2023/12/05 10:20:38;;;;;;;23.93;22.03;;;;;;;21.99;31.43;95082.34;6263064;27;109099;-61
2023/12/05 10:23:43;;;;;;;21.83;20.13;;;;;;;21.98;31.48;95081.56;6262507;27;109021;-60
2023/12/05 10:26:47;;;;;;;20.47;18.83;;;;;;;21.97;31.07;95074.66;6252091;27;109117;-61
2023/12/05 10:29:50;;;;;;;18.53;17.17;;;;;;;21.98;31.38;95056.78;6262546;27;109368;-60
2023/12/05 10:32:53;;;;;;;18.53;17.13;;;;;;;21.97;31.07;95050.69;6261770;27;109054;-60
2023/12/05 10:35:56;;;;;;;18.03;16.73;;;;;;;22.01;31.10;95045.53;6246194;27;108954;-60
2023/12/05 10:39:01;;;;;;;16.83;15.60;;;;;;;22.00;31.06;95038.63;6251592;27;110015;-60
2023/12/05 10:42:08;;;;;;;16.00;14.70;;;;;;;22.00;31.32;95038.63;6261587;27;109135;-61
2023/12/05 10:45:12;;;;;;;14.77;13.57;;;;;;;22.15;31.47;95027.56;6261911;27;109170;-61
2023/12/05 10:48:17;;;;;;;14.50;13.40;;;;;;;22.14;31.39;95019.88;6260425;27;110205;-62
2023/12/05 10:51:20;;;;;;;12.60;11.60;;;;;;;22.07;31.39;95026.44;6254488;27;109265;-61
2023/12/05 10:54:26;;;;;;;12.10;11.00;;;;;;;22.05;31.37;95020.66;6261945;27;109208;-61
2023/12/05 10:57:33;;;;;;;10.77;9.97;;;;;;;22.03;30.94;95011.38;6261690;27;109006;-60
2023/12/05 11:00:37;;;;;;;10.90;10.00;;;;;;;22.03;31.30;95009.50;6251722;27;109261;-60
2023/12/05 11:03:41;;;;;;;9.77;8.87;;;;;;;22.10;31.65;95003.72;6260842;27;109970;-61
2023/12/05 11:06:45;;;;;;;9.47;8.77;;;;;;;22.08;30.86;94993.38;6261669;27;109590;-60
2023/12/05 11:09:49;;;;;;;9.20;8.40;;;;;;;22.05;30.93;94998.53;6262146;27;108935;-60
2023/12/05 11:12:54;;;;;;;8.73;7.93;;;;;;;22.02;31.22;95002.59;6252172;27;111145;-59
2023/12/05 11:16:01;;;;;;;8.40;7.70;;;;;;;22.02;31.05;94993.84;6261776;27;108739;-60
2023/12/05 11:19:14;;;;;;;8.10;7.30;;;;;;;22.00;30.97;94996.78;6261789;27;108949;-60
2023/12/05 11:22:31;;;;;;;7.57;6.87;;;;;;;22.00;31.31;95003.97;6261526;27;109278;-59
2023/12/05 11:25:50;;;;;;;7.33;6.63;;;;;;;21.99;30.95;94992.53;6255961;27;109159;-60
2023/12/05 11:29:07;;;;;;;7.37;6.67;;;;;;;21.99;31.58;94986.44;6261677;27;109034;-61
2023/12/05 11:32:19;;;;;;;7.50;6.83;;;;;;;21.98;30.96;94980.31;6261240;27;109330;-60
2023/12/05 11:35:32;;;;;;;7.63;6.93;;;;;;;21.98;31.41;94969.66;6250734;27;109072;-59
2023/12/05 11:38:35;;;;;;;7.00;6.30;;;;;;;21.98;31.04;94972.31;6261427;27;109016;-59
2023/12/05 11:41:40;;;;;;;6.87;6.17;;;;;;;21.99;30.89;94979.22;6261266;27;109192;-59
2023/12/05 11:44:43;;;;;;;7.20;6.50;;;;;;;21.99;31.04;94975.75;6261154;27;109132;-59
2023/12/05 11:47:47;;;;;;;6.77;6.07;;;;;;;22.01;31.26;94971.72;6251034;27;109677;-60
2023/12/05 11:50:52;;;;;;;6.07;5.47;;;;;;;21.99;31.27;94976.56;6260995;27;108996;-60
2023/12/05 11:53:55;;;;;;;6.83;5.77;;;;;;;22.00;31.50;94977.34;6261596;27;109219;-60
2023/12/05 11:57:12;;;;;;;6.20;5.60;;;;;;;21.99;31.41;94986.44;6256124;27;109506;-60
2023/12/05 12:00:16;;;;;;;6.23;5.63;;;;;;;21.98;31.55;94985.63;6260560;27;109398;-60
2023/12/05 12:03:19;;;;;;;6.07;5.20;;;;;;;21.98;31.25;94977.66;6261053;27;109086;-61
2023/12/05 12:06:24;;;;;;;5.53;5.03;;;;;;;21.98;31.25;94963.53;6261065;27;109283;-60
2023/12/05 12:09:27;;;;;;;5.60;5.10;;;;;;;21.98;31.10;94968.88;6249759;27;108993;-60
2023/12/05 12:12:32;;;;;;;6.80;4.90;;;;;;;21.97;31.57;94968.09;6261194;27;109245;-60
2023/12/05 12:15:36;;;;;;;5.50;5.00;;;;;;;21.97;31.60;94972.63;6264357;27;109084;-59
2023/12/05 12:18:40;;;;;;;5.70;5.13;;;;;;;21.97;31.57;94983.28;6265204;27;109884;-60
2023/12/05 12:21:55;;;;;;;5.73;5.23;;;;;;;21.96;31.39;94979.84;6254250;27;109011;-60
2023/12/05 12:25:05;;;;;;;4.97;4.47;;;;;;;21.96;31.16;94971.84;6265084;27;109189;-59
2023/12/05 12:28:24;;;;;;;5.40;4.90;;;;;;;21.97;31.46;94969.97;6265355;27;109186;-61
2023/12/05 12:31:27;;;;;;;5.03;4.60;;;;;;;21.96;31.25;94963.84;6256220;27;110155;-60
2023/12/05 12:34:30;;;;;;;5.27;4.77;;;;;;;21.96;31.40;94963.06;6265346;27;109237;-59
2023/12/05 12:37:33;;;;;;;5.60;5.07;;;;;;;21.96;31.55;94955.84;6265879;27;109356;-60
2023/12/05 12:40:53;;;;;;;4.83;4.20;;;;;;;21.96;31.25;94955.06;6264807;27;109157;-60
2023/12/05 12:43:57;;;;;;;5.20;4.70;;;;;;;21.95;31.58;94958.81;6254530;27;108991;-60
2023/12/05 12:47:00;;;;;;;5.93;5.03;;;;;;;21.95;31.06;94959.63;6265640;27;110478;-59
2023/12/05 12:50:05;;;;;;;5.10;4.60;;;;;;;21.94;30.99;94966.03;6264846;27;109525;-60
2023/12/05 12:53:08;;;;;;;5.40;4.90;;;;;;;21.94;31.47;94959.91;6265179;27;109068;-60
2023/12/05 12:56:11;;;;;;;4.70;4.30;;;;;;;21.93;31.50;94956.47;6255612;27;111910;-60
2023/12/05 12:59:16;;;;;;;4.83;3.83;;;;;;;21.93;31.31;94959.13;6264964;27;110233;-60
2023/12/05 13:02:20;;;;;;;4.60;4.10;;;;;;;21.92;31.23;94959.44;6264779;27;109018;-61
2023/12/05 13:05:31;;;;;;;4.40;4.00;;;;;;;21.91;31.60;94961.31;6255179;27;112386;-61
2023/12/05 13:08:34;;;;;;;4.67;4.27;;;;;;;21.90;31.31;94962.41;6264020;27;109061;-61
2023/12/05 13:11:37;;;;;;;4.23;3.83;;;;;;;21.91;31.52;94963.19;6264549;27;111346;-59
2023/12/05 13:14:47;;;;;;;3.90;3.50;;;;;;;21.90;31.64;94957.09;6264389;27;109323;-62
2023/12/05 13:17:58;;;;;;;4.90;4.40;;;;;;;21.89;31.23;94952.06;6253584;27;111425;-61
2023/12/05 13:21:01;;;;;;;4.30;3.90;;;;;;;21.90;31.41;94956.31;6264675;27;109196;-61
2023/12/05 13:24:07;;;;;;;4.37;3.77;;;;;;;21.89;31.44;94966.19;6264179;27;108961;-60
2023/12/05 13:27:12;;;;;;;4.43;4.03;;;;;;;21.89;31.75;94966.19;6263524;27;109096;-60
2023/12/05 13:30:17;;;;;;;6.07;3.90;;;;;;;21.89;31.28;94970.72;6253886;27;109199;-60
2023/12/05 13:33:20;;;;;;;4.60;4.20;;;;;;;21.88;31.33;94969.16;6263116;27;109217;-61
2023/12/05 13:36:23;;;;;;;4.27;3.83;;;;;;;21.88;31.39;94975.25;6263603;27;109056;-61
2023/12/05 13:39:26;;;;;;;3.60;3.30;;;;;;;21.88;31.56;94969.94;6254771;27;109955;-59
2023/12/05 13:42:29;;;;;;;4.23;3.83;;;;;;;21.88;31.30;94975.25;6262665;27;109277;-60
2023/12/05 13:45:34;;;;;;;3.90;3.50;;;;;;;21.86;31.68;94979.31;6263926;27;111744;-60
2023/12/05 13:48:37;;;;;;;4.77;3.57;;;;;;;21.86;31.29;94980.13;6263332;27;109412;-60
2023/12/05 13:51:43;;;;;;;3.70;3.20;;;;;;;21.85;31.33;94975.88;6252209;27;109951;-60
2023/12/05 13:54:46;;;;;;;3.93;3.47;;;;;;;21.87;31.47;94980.91;6263591;27;110119;-60
2023/12/05 13:57:49;;;;;;;3.83;3.43;;;;;;;21.85;31.51;94970.56;6263569;27;110496;-60
2023/12/05 14:00:54;;;;;;;3.30;3.00;;;;;;;21.85;31.40;94975.09;6263456;27;109055;-60
2023/12/05 14:03:57;;;;;;;4.80;4.10;;;;;;;21.86;31.69;94980.13;6253194;27;111113;-61
2023/12/05 14:07:01;;;;;;;3.40;3.10;;;;;;;21.85;31.77;94975.88;6263261;27;108841;-60
2023/12/05 14:10:04;;;;;;;3.27;2.97;;;;;;;21.87;31.60;94983.56;6262790;27;109038;-60
2023/12/05 14:13:08;;;;;;;3.70;3.27;;;;;;;21.86;31.36;94972.13;6257298;27;109029;-61
2023/12/05 14:16:12;;;;;;;3.80;3.40;;;;;;;21.87;31.62;94983.56;6257309;27;108789;-61